createdAt,value
2024-01-03T00:00:44.188Z,3.60
2024-01-03T00:03:11.054Z,1.25
2024-01-03T00:05:40.147Z,2.25
2024-01-03T00:08:12.733Z,0.60
2024-01-03T00:10:56.024Z,2.45
2024-01-03T00:13:58.208Z,0.60
2024-01-03T00:16:24.947Z,3.35
2024-01-03T00:18:55.892Z,1.42
2024-01-03T00:21:26.604Z,0.40
2024-01-03T00:23:59.324Z,1.85
2024-01-03T00:26:30.817Z,1.65
2024-01-03T00:28:58.099Z,1.85
2024-01-03T00:31:39.826Z,1.30
2024-01-03T00:34:23.685Z,2.45
2024-01-03T00:36:52.557Z,1.30
2024-01-03T00:39:30.605Z,3.33
2024-01-03T00:41:58.476Z,4.80
2024-01-03T00:44:25.124Z,2.03
2024-01-03T00:46:56.630Z,3.42
2024-01-03T00:49:24.204Z,2.80
2024-01-03T00:51:51.472Z,3.15
2024-01-03T00:54:20.152Z,3.85
2024-01-03T00:56:48.279Z,4.65
2024-01-03T00:59:16.545Z,9.30
2024-01-03T01:01:44.862Z,3.10
2024-01-03T01:04:13.017Z,1.80
2024-01-03T01:06:42.207Z,1.00
2024-01-03T01:09:09.741Z,7.43
2024-01-03T01:11:36.796Z,6.90
2024-01-03T01:14:03.512Z,6.45
2024-01-03T01:16:30.485Z,2.83
2024-01-03T01:18:57.182Z,2.67
2024-01-03T01:21:23.868Z,4.85
2024-01-03T01:23:50.583Z,7.68
2024-01-03T01:26:17.409Z,3.03
2024-01-03T01:28:44.317Z,4.75
2024-01-03T01:31:11.175Z,3.83
2024-01-03T01:33:37.979Z,4.57
2024-01-03T01:36:05.027Z,4.38
2024-01-03T01:38:31.628Z,5.65
2024-01-03T01:40:58.220Z,6.90
2024-01-03T01:43:24.902Z,1.90
2024-01-03T01:45:52.375Z,4.55
2024-01-03T01:48:20.263Z,4.50
2024-01-03T01:50:46.970Z,4.10
2024-01-03T01:53:14.722Z,6.55
2024-01-03T01:55:42.070Z,5.47
2024-01-03T01:58:09.893Z,3.30
2024-01-03T02:00:39.723Z,2.10
2024-01-03T02:03:07.389Z,8.20
2024-01-03T02:05:35.724Z,3.95
2024-01-03T02:08:02.572Z,3.70
2024-01-03T02:10:29.499Z,5.90
2024-01-03T02:12:56.152Z,3.92
2024-01-03T02:15:24.480Z,3.65
2024-01-03T02:17:52.496Z,2.13
2024-01-03T02:20:19.217Z,6.18
2024-01-03T02:22:45.983Z,3.10
2024-01-03T02:25:12.876Z,1.90
2024-01-03T02:27:39.534Z,6.07
2024-01-03T02:30:07.158Z,4.75
2024-01-03T02:32:34.072Z,3.58
2024-01-03T02:35:00.823Z,5.57
2024-01-03T02:37:27.788Z,4.35
2024-01-03T02:39:54.439Z,3.17
2024-01-03T02:42:20.995Z,2.47
2024-01-03T02:44:47.654Z,3.42
2024-01-03T02:47:14.536Z,4.28
2024-01-03T02:49:41.242Z,2.28
2024-01-03T02:52:07.951Z,2.28
2024-01-03T02:54:34.635Z,3.17
2024-01-03T02:57:01.339Z,4.68
2024-01-03T02:59:28.046Z,5.97
2024-01-03T03:01:54.661Z,6.07
2024-01-03T03:04:21.326Z,7.63
2024-01-03T03:06:48.067Z,3.50
2024-01-03T03:09:17.228Z,3.53
2024-01-03T03:11:44.828Z,4.93
2024-01-03T03:14:12.114Z,5.30
2024-01-03T03:16:39.100Z,2.90
2024-01-03T03:19:06.738Z,7.13
2024-01-03T03:21:34.046Z,9.93
2024-01-03T03:24:02.327Z,4.60
2024-01-03T03:26:29.205Z,7.22
2024-01-03T03:28:55.854Z,3.65
2024-01-03T03:31:22.518Z,9.55
2024-01-03T03:33:49.327Z,7.13
2024-01-03T03:36:16.439Z,7.10
2024-01-03T03:38:43.341Z,7.10
2024-01-03T03:41:14.119Z,2.88
2024-01-03T03:43:41.759Z,9.43
2024-01-03T03:46:09.423Z,7.13
2024-01-03T03:48:36.553Z,5.95
2024-01-03T03:51:04.875Z,9.95
2024-01-03T03:53:31.699Z,7.20
2024-01-03T03:55:58.355Z,4.63
2024-01-03T03:58:25.048Z,6.07
2024-01-03T04:00:51.642Z,8.25
2024-01-03T04:03:18.283Z,8.85
2024-01-03T04:05:45.100Z,6.55
2024-01-03T04:08:12.217Z,7.15
2024-01-03T04:10:39.165Z,9.60
2024-01-03T04:13:05.933Z,7.10
2024-01-03T04:15:32.592Z,9.18
2024-01-03T04:17:59.658Z,10.27
2024-01-03T04:20:26.506Z,9.63
2024-01-03T04:22:53.259Z,8.05
2024-01-03T04:25:20.012Z,8.20
2024-01-03T04:27:46.686Z,9.20
2024-01-03T04:30:13.423Z,7.60
2024-01-03T04:32:40.115Z,9.38
2024-01-03T04:35:07.054Z,5.72
2024-01-03T04:37:34.465Z,10.57
2024-01-03T04:40:01.243Z,6.55
2024-01-03T04:42:27.993Z,8.88
2024-01-03T04:44:54.884Z,5.40
2024-01-03T04:47:21.750Z,8.70
2024-01-03T04:49:48.595Z,5.88
2024-01-03T04:52:15.328Z,10.75
2024-01-03T04:54:41.978Z,9.88
2024-01-03T04:57:09.029Z,7.72
2024-01-03T04:59:36.471Z,9.32
2024-01-03T05:02:03.760Z,12.30
2024-01-03T05:04:30.356Z,10.90
2024-01-03T05:06:58.008Z,11.57
2024-01-03T05:09:24.836Z,8.55
2024-01-03T05:11:51.818Z,11.60
2024-01-03T05:14:18.597Z,9.50
2024-01-03T05:16:45.298Z,9.75
2024-01-03T05:19:12.030Z,7.38
2024-01-03T05:21:38.772Z,10.40
2024-01-03T05:24:05.683Z,14.25
2024-01-03T05:26:32.697Z,12.18
2024-01-03T05:28:59.317Z,13.52
2024-01-03T05:31:25.974Z,13.82
2024-01-03T05:33:52.992Z,11.20
2024-01-03T05:36:19.709Z,12.35
2024-01-03T05:38:46.405Z,10.88
2024-01-03T05:41:13.128Z,15.65
2024-01-03T05:43:39.689Z,8.38
2024-01-03T05:46:07.182Z,11.98
2024-01-03T05:48:34.125Z,15.60
2024-01-03T05:51:01.093Z,14.00
2024-01-03T05:53:28.130Z,11.85
2024-01-03T05:55:54.761Z,15.63
2024-01-03T05:58:21.454Z,14.30
2024-01-03T06:00:48.201Z,18.83
2024-01-03T06:03:14.952Z,14.38
2024-01-03T06:05:42.193Z,13.40
2024-01-03T06:08:09.195Z,14.10
2024-01-03T06:10:36.191Z,13.40
2024-01-03T06:13:02.845Z,13.68
2024-01-03T06:15:29.566Z,16.45
2024-01-03T06:17:56.382Z,14.43
2024-01-03T06:20:24.258Z,10.02
2024-01-03T06:22:51.348Z,15.40
2024-01-03T06:25:18.020Z,16.73
2024-01-03T06:27:45.333Z,14.10
2024-01-03T06:30:12.494Z,7.97
2024-01-03T06:32:39.573Z,16.50
2024-01-03T06:35:06.993Z,11.18
2024-01-03T06:37:33.640Z,13.38
2024-01-03T06:40:00.294Z,13.80
2024-01-03T06:42:26.930Z,9.50
2024-01-03T06:44:54.745Z,17.33
2024-01-03T06:47:21.460Z,13.55
2024-01-03T06:49:48.101Z,13.40
2024-01-03T06:52:14.716Z,11.75
2024-01-03T06:54:41.392Z,14.80
2024-01-03T06:57:08.030Z,18.67
2024-01-03T06:59:37.652Z,17.33
2024-01-03T07:02:04.736Z,10.18
2024-01-03T07:04:31.414Z,16.85
2024-01-03T07:06:58.492Z,15.70
2024-01-03T07:09:26.102Z,11.45
2024-01-03T07:11:52.995Z,12.18
2024-01-03T07:14:19.916Z,10.45
2024-01-03T07:16:49.056Z,9.30
2024-01-03T07:19:17.568Z,14.20
2024-01-03T07:21:44.204Z,8.93
2024-01-03T07:24:11.649Z,14.38
2024-01-03T07:26:38.349Z,8.90
2024-01-03T07:29:05.025Z,10.02
2024-01-03T07:31:31.653Z,14.38
2024-01-03T07:33:58.351Z,9.48
2024-01-03T07:36:24.974Z,8.88
2024-01-03T07:38:52.133Z,7.22
2024-01-03T07:41:20.684Z,13.63
2024-01-03T07:43:47.377Z,13.05
2024-01-03T07:46:17.030Z,15.13
2024-01-03T07:48:43.993Z,15.45
2024-01-03T07:51:12.209Z,10.38
2024-01-03T07:53:38.951Z,13.10
2024-01-03T07:56:09.451Z,15.18
2024-01-03T07:58:36.113Z,18.52
2024-01-03T08:01:02.917Z,15.65
2024-01-03T08:03:29.997Z,15.35
2024-01-03T08:05:56.994Z,11.68
2024-01-03T08:08:23.741Z,21.85
2024-01-03T08:10:50.348Z,17.30
2024-01-03T08:13:17.828Z,11.60
2024-01-03T08:15:44.415Z,33.17
2024-01-03T08:18:11.801Z,14.75
2024-01-03T08:20:39.329Z,10.68
2024-01-03T08:23:06.058Z,15.35
2024-01-03T08:25:32.689Z,11.48
2024-01-03T08:27:59.349Z,14.00
2024-01-03T08:30:25.992Z,13.75
2024-01-03T08:32:52.691Z,13.23
2024-01-03T08:35:19.619Z,15.38
2024-01-03T08:37:46.252Z,8.82
2024-01-03T08:40:13.090Z,12.23
2024-01-03T08:42:39.681Z,10.15
2024-01-03T08:45:06.628Z,11.52
2024-01-03T08:47:33.473Z,6.75
2024-01-03T08:50:00.429Z,5.00
2024-01-03T08:52:27.275Z,8.05
2024-01-03T08:54:53.831Z,14.73
2024-01-03T08:57:20.518Z,6.90
2024-01-03T08:59:47.156Z,12.27
2024-01-03T09:02:14.452Z,7.53
2024-01-03T09:04:42.022Z,6.65
2024-01-03T09:07:08.691Z,5.13
2024-01-03T09:09:35.298Z,4.20
2024-01-03T09:12:02.035Z,5.82
2024-01-03T09:14:28.900Z,6.25
2024-01-03T09:16:56.039Z,6.45
2024-01-03T09:19:22.857Z,3.72
2024-01-03T09:21:49.604Z,5.82
2024-01-03T09:24:16.699Z,4.45
2024-01-03T09:26:43.407Z,6.45
2024-01-03T09:29:10.078Z,5.15
2024-01-03T09:31:44.243Z,9.48
2024-01-03T09:34:11.033Z,7.13
2024-01-03T09:36:37.717Z,7.00
2024-01-03T09:39:04.478Z,7.60
2024-01-03T09:41:32.423Z,3.08
2024-01-03T09:43:59.367Z,6.25
2024-01-03T09:46:25.974Z,5.88
2024-01-03T09:48:52.790Z,5.03
2024-01-03T09:51:22.737Z,5.57
2024-01-03T09:53:53.533Z,2.65
2024-01-03T09:56:20.456Z,3.42
2024-01-03T09:58:50.555Z,6.18
2024-01-03T10:01:17.340Z,5.68
2024-01-03T10:03:44.817Z,7.20
2024-01-03T10:06:18.809Z,4.65
2024-01-03T10:09:04.957Z,7.00
2024-01-03T10:11:32.224Z,2.78
2024-01-03T10:14:16.535Z,2.13
2024-01-03T10:16:45.598Z,5.60
2024-01-03T10:19:16.630Z,6.93
2024-01-03T10:21:54.319Z,4.05
2024-01-03T10:24:25.804Z,11.23
2024-01-03T10:26:53.415Z,6.20
2024-01-03T10:29:22.003Z,7.30
2024-01-03T10:31:49.937Z,6.13
2024-01-03T10:34:25.615Z,5.25
2024-01-03T10:36:54.104Z,7.00
2024-01-03T10:39:21.352Z,11.38
2024-01-03T10:41:49.779Z,4.80
2024-01-03T10:44:18.726Z,7.18
2024-01-03T10:46:46.478Z,8.40
2024-01-03T10:49:14.278Z,6.18
2024-01-03T10:51:43.059Z,9.50
2024-01-03T10:54:15.707Z,7.60
2024-01-03T10:56:52.387Z,8.23
2024-01-03T10:59:23.000Z,10.18
2024-01-03T11:02:01.918Z,8.75
2024-01-03T11:04:47.948Z,5.05
2024-01-03T11:07:30.781Z,7.88
2024-01-03T11:09:57.409Z,8.30
2024-01-03T11:12:29.649Z,9.77
2024-01-03T11:14:56.496Z,9.30
2024-01-03T11:17:41.056Z,7.07
2024-01-03T11:20:09.068Z,5.78
2024-01-03T11:22:58.327Z,7.15
2024-01-03T11:25:47.350Z,7.07
2024-01-03T11:28:33.540Z,10.55
2024-01-03T11:31:01.538Z,9.23
2024-01-03T11:33:33.497Z,9.00
2024-01-03T11:36:00.749Z,6.78
2024-01-03T11:38:44.899Z,12.20
2024-01-03T11:41:19.404Z,8.52
2024-01-03T11:43:48.133Z,9.25
2024-01-03T11:46:16.620Z,8.25
2024-01-03T11:48:47.046Z,6.80
2024-01-03T11:51:23.912Z,9.85
2024-01-03T11:53:51.693Z,8.55
2024-01-03T11:56:35.637Z,8.13
2024-01-03T11:59:04.275Z,5.97
2024-01-03T12:01:32.109Z,8.43
2024-01-03T12:04:10.215Z,11.15
2024-01-03T12:06:37.855Z,7.03
2024-01-03T12:09:05.583Z,6.80
2024-01-03T12:11:34.162Z,7.68
2024-01-03T12:14:01.034Z,8.60
2024-01-03T12:16:27.687Z,5.53
2024-01-03T12:18:54.837Z,4.65
2024-01-03T12:21:21.629Z,7.50
2024-01-03T12:24:03.212Z,5.63
2024-01-03T12:26:30.337Z,7.53
2024-01-03T12:29:03.930Z,11.63
2024-01-03T12:31:31.015Z,11.68
2024-01-03T12:34:09.885Z,8.43
2024-01-03T12:36:36.705Z,4.28
2024-01-03T12:39:03.875Z,6.32
2024-01-03T12:41:30.696Z,7.30
2024-01-03T12:43:57.299Z,7.45
2024-01-03T12:46:23.982Z,6.03
2024-01-03T12:48:51.628Z,6.45
2024-01-03T12:51:19.158Z,7.05
2024-01-03T12:53:48.192Z,4.93
2024-01-03T12:56:15.174Z,5.90
2024-01-03T12:58:41.776Z,4.72
2024-01-03T13:01:08.412Z,9.88
2024-01-03T13:03:35.061Z,6.82
2024-01-03T13:06:01.670Z,9.20
2024-01-03T13:08:28.378Z,10.63
2024-01-03T13:10:55.122Z,6.82
2024-01-03T13:13:21.679Z,11.40
2024-01-03T13:15:51.699Z,11.27
2024-01-03T13:18:18.465Z,10.98
2024-01-03T13:20:45.354Z,7.32
2024-01-03T13:23:12.220Z,12.70
2024-01-03T13:25:39.489Z,7.63
2024-01-03T13:28:06.323Z,7.55
2024-01-03T13:30:32.986Z,6.65
2024-01-03T13:33:00.532Z,8.82
2024-01-03T13:35:28.231Z,9.45
2024-01-03T13:37:54.880Z,9.40
2024-01-03T13:40:21.659Z,12.45
2024-01-03T13:42:48.369Z,8.32
2024-01-03T13:45:15.376Z,7.82
2024-01-03T13:47:42.252Z,9.43
2024-01-03T13:50:10.561Z,8.32
2024-01-03T13:52:40.626Z,12.02
2024-01-03T13:55:07.753Z,9.27
2024-01-03T13:57:37.941Z,10.80
2024-01-03T14:00:09.825Z,10.52
2024-01-03T14:02:39.599Z,7.35
2024-01-03T14:05:06.589Z,8.52
2024-01-03T14:07:33.249Z,10.18
2024-01-03T14:09:59.862Z,10.57
2024-01-03T14:12:27.622Z,8.50
2024-01-03T14:14:54.258Z,7.70
2024-01-03T14:17:21.010Z,9.07
2024-01-03T14:19:48.373Z,6.80
2024-01-03T14:22:15.131Z,8.85
2024-01-03T14:24:41.813Z,10.05
2024-01-03T14:27:08.668Z,10.57
2024-01-03T14:29:35.328Z,8.45
2024-01-03T14:32:01.947Z,4.35
2024-01-03T14:34:28.575Z,7.05
2024-01-03T14:37:08.803Z,3.55
2024-01-03T14:39:36.626Z,4.38
2024-01-03T14:42:04.223Z,9.50
2024-01-03T14:44:31.296Z,6.40
2024-01-03T14:46:57.982Z,4.70
2024-01-03T14:49:25.855Z,5.22
2024-01-03T14:51:52.686Z,4.78
2024-01-03T14:54:19.600Z,4.93
2024-01-03T14:56:46.279Z,3.05
2024-01-03T14:59:15.632Z,6.68
2024-01-03T15:01:45.865Z,3.33
2024-01-03T15:04:13.834Z,3.42
2024-01-03T15:06:40.710Z,5.43
2024-01-03T15:09:08.636Z,6.30
2024-01-03T15:11:35.341Z,3.70
2024-01-03T15:14:02.246Z,3.80
2024-01-03T15:16:28.884Z,4.40
2024-01-03T15:18:55.902Z,5.85
2024-01-03T15:21:23.508Z,3.95
2024-01-03T15:23:50.206Z,3.47
2024-01-03T15:26:16.931Z,8.50
2024-01-03T15:28:43.514Z,3.45
2024-01-03T15:31:10.179Z,3.72
2024-01-03T15:33:36.915Z,5.60
2024-01-03T15:36:03.704Z,3.83
2024-01-03T15:38:30.370Z,7.90
2024-01-03T15:40:57.130Z,5.43
2024-01-03T15:43:23.822Z,5.45
2024-01-03T15:45:50.528Z,4.30
2024-01-03T15:48:17.367Z,3.22
2024-01-03T15:50:44.301Z,5.15
2024-01-03T15:53:12.655Z,3.33
2024-01-03T15:55:39.537Z,3.40
2024-01-03T15:58:06.545Z,5.63
2024-01-03T16:00:33.208Z,2.45
2024-01-03T16:03:00.055Z,3.25
2024-01-03T16:05:26.850Z,7.28
2024-01-03T16:07:53.934Z,3.65
2024-01-03T16:10:20.611Z,2.47
2024-01-03T16:12:47.220Z,4.70
2024-01-03T16:15:13.958Z,2.47
2024-01-03T16:17:40.682Z,4.38
2024-01-03T16:20:08.518Z,2.22
2024-01-03T16:22:36.406Z,3.15
2024-01-03T16:25:11.537Z,3.30
2024-01-03T16:27:39.492Z,6.45
2024-01-03T16:30:07.865Z,6.25
2024-01-03T16:32:34.961Z,5.85
2024-01-03T16:35:02.072Z,6.65
2024-01-03T16:37:32.043Z,7.25
2024-01-03T16:39:58.990Z,5.20
2024-01-03T16:42:25.640Z,5.47
2024-01-03T16:44:52.351Z,4.15
2024-01-03T16:47:19.020Z,7.60
2024-01-03T16:49:46.020Z,11.07
2024-01-03T16:52:12.752Z,4.75
2024-01-03T16:54:39.337Z,8.13
2024-01-03T16:57:06.781Z,9.27
2024-01-03T16:59:33.538Z,6.85
2024-01-03T17:02:00.202Z,8.98
2024-01-03T17:04:26.839Z,7.32
2024-01-03T17:06:54.641Z,12.85
2024-01-03T17:09:23.237Z,10.48
2024-01-03T17:11:49.874Z,7.00
2024-01-03T17:14:17.238Z,10.07
2024-01-03T17:16:44.434Z,8.60
2024-01-03T17:19:11.457Z,11.95
2024-01-03T17:21:38.331Z,15.13
2024-01-03T17:24:06.759Z,13.25
2024-01-03T17:26:36.799Z,10.07
2024-01-03T17:29:05.391Z,3.53
2024-01-03T17:31:36.568Z,3.47
2024-01-03T17:34:04.049Z,5.10
2024-01-03T17:36:30.774Z,5.10
2024-01-03T17:38:57.525Z,6.38
2024-01-03T17:41:30.415Z,4.82
2024-01-03T17:43:58.558Z,9.48
2024-01-03T17:46:25.186Z,9.00
2024-01-03T17:48:53.306Z,3.33
2024-01-03T17:51:21.670Z,6.50
2024-01-03T17:53:50.648Z,7.70
2024-01-03T17:56:24.675Z,5.68
2024-01-03T17:58:51.974Z,4.88
2024-01-03T18:01:19.598Z,3.25
2024-01-03T18:03:46.530Z,4.53
2024-01-03T18:06:14.512Z,5.45
2024-01-03T18:08:41.417Z,5.35
2024-01-03T18:11:08.156Z,2.90
2024-01-03T18:13:34.760Z,9.52
2024-01-03T18:16:01.664Z,5.15
2024-01-03T18:18:28.436Z,4.65
2024-01-03T18:20:55.265Z,5.50
2024-01-03T18:23:22.142Z,5.97
2024-01-03T18:25:50.387Z,6.78
2024-01-03T18:28:17.364Z,4.15
2024-01-03T18:30:45.878Z,4.82
2024-01-03T18:33:13.164Z,6.65
2024-01-03T18:35:39.994Z,7.38
2024-01-03T18:38:08.432Z,8.38
2024-01-03T18:40:35.635Z,4.32
2024-01-03T18:43:03.690Z,6.80
2024-01-03T18:45:30.641Z,9.33
2024-01-03T18:47:58.104Z,6.15
2024-01-03T18:50:25.442Z,3.47
2024-01-03T18:52:52.171Z,2.65
2024-01-03T18:55:20.643Z,7.97
2024-01-03T18:57:48.721Z,5.40
2024-01-03T19:00:16.128Z,6.65
2024-01-03T19:02:42.863Z,6.47
2024-01-03T19:05:10.761Z,4.18
2024-01-03T19:07:37.805Z,2.70
2024-01-03T19:10:04.724Z,5.45
2024-01-03T19:12:31.413Z,6.90
2024-01-03T19:14:58.094Z,5.63
2024-01-03T19:17:24.693Z,5.40
2024-01-03T19:19:51.847Z,6.28
2024-01-03T19:22:18.576Z,5.53
2024-01-03T19:24:45.193Z,3.25
2024-01-03T19:27:11.801Z,4.07
2024-01-03T19:29:38.475Z,4.57
2024-01-03T19:32:05.335Z,3.72
2024-01-03T19:34:31.923Z,3.85
2024-01-03T19:36:58.626Z,3.42
2024-01-03T19:39:25.390Z,2.22
2024-01-03T19:41:52.196Z,4.95
2024-01-03T19:44:20.783Z,3.33
2024-01-03T19:46:47.408Z,3.03
2024-01-03T19:49:14.698Z,4.25
2024-01-03T19:51:41.680Z,4.57
2024-01-03T19:54:11.564Z,3.22
2024-01-03T19:56:42.009Z,2.33
2024-01-03T19:59:09.147Z,2.53
2024-01-03T20:01:35.755Z,5.95
2024-01-03T20:04:02.455Z,3.95
2024-01-03T20:06:29.445Z,2.90
2024-01-03T20:08:59.172Z,4.68
2024-01-03T20:11:25.858Z,2.72
2024-01-03T20:13:52.585Z,2.33
2024-01-03T20:16:19.249Z,5.50
2024-01-03T20:18:46.126Z,6.15
2024-01-03T20:21:13.241Z,4.32
2024-01-03T20:23:41.612Z,7.05
2024-01-03T20:26:17.019Z,5.70
2024-01-03T20:28:45.910Z,4.43
2024-01-03T20:31:16.682Z,4.43
2024-01-03T20:33:43.527Z,4.13
2024-01-03T20:36:10.409Z,2.67
2024-01-03T20:38:37.252Z,3.08
2024-01-03T20:41:05.372Z,1.88
2024-01-03T20:43:36.836Z,4.90
2024-01-03T20:46:04.785Z,3.60
2024-01-03T20:48:33.824Z,3.25
2024-01-03T20:51:00.989Z,2.78
2024-01-03T20:53:30.446Z,2.38
2024-01-03T20:55:57.934Z,6.30
2024-01-03T20:58:24.769Z,2.05
2024-01-03T21:00:51.550Z,4.28
2024-01-03T21:03:18.694Z,2.92
2024-01-03T21:05:45.508Z,5.15
2024-01-03T21:08:12.210Z,10.85
2024-01-03T21:10:38.943Z,3.88
2024-01-03T21:13:05.624Z,3.10
2024-01-03T21:15:35.477Z,7.07
2024-01-03T21:18:02.399Z,2.33
2024-01-03T21:20:29.409Z,5.75
2024-01-03T21:22:56.080Z,1.58
2024-01-03T21:25:22.721Z,3.35
2024-01-03T21:27:51.840Z,6.32
2024-01-03T21:30:20.028Z,3.70
2024-01-03T21:32:47.302Z,3.38
2024-01-03T21:35:14.100Z,3.88
2024-01-03T21:37:40.658Z,4.63
2024-01-03T21:40:07.916Z,2.67
2024-01-03T21:42:34.575Z,2.38
2024-01-03T21:45:01.415Z,2.72
2024-01-03T21:47:28.145Z,1.80
2024-01-03T21:49:55.046Z,6.05
2024-01-03T21:52:21.682Z,2.33
2024-01-03T21:54:48.430Z,2.67
2024-01-03T21:57:15.129Z,2.25
2024-01-03T21:59:41.975Z,1.88
2024-01-03T22:02:08.779Z,2.53
2024-01-03T22:04:36.190Z,2.83
2024-01-03T22:07:03.265Z,4.82
2024-01-03T22:09:30.147Z,2.03
2024-01-03T22:11:58.551Z,3.00
2024-01-03T22:14:28.472Z,3.20
2024-01-03T22:16:55.450Z,3.13
2024-01-03T22:19:22.460Z,1.98
2024-01-03T22:21:49.546Z,6.90
2024-01-03T22:24:16.885Z,0.68
2024-01-03T22:26:43.677Z,1.98
2024-01-03T22:29:10.306Z,4.20
2024-01-03T22:31:39.341Z,2.28
2024-01-03T22:36:33.218Z,3.20
2024-01-03T22:38:59.950Z,3.42
2024-01-03T22:41:26.935Z,5.35
2024-01-03T22:43:53.576Z,1.88
2024-01-03T22:46:20.329Z,4.13
2024-01-03T22:48:47.092Z,3.22
2024-01-03T22:51:14.224Z,2.08
2024-01-03T22:53:43.560Z,4.25
2024-01-03T22:58:37.331Z,2.80
2024-01-03T23:01:04.127Z,2.10
2024-01-03T23:03:31.166Z,3.88
2024-01-03T23:05:58.328Z,3.03
2024-01-03T23:08:25.078Z,2.70
2024-01-03T23:10:51.683Z,4.25
2024-01-03T23:13:18.243Z,4.53
2024-01-03T23:15:44.811Z,7.07
2024-01-03T23:18:11.618Z,6.18
2024-01-03T23:20:38.518Z,4.75
2024-01-03T23:23:10.018Z,3.30
2024-01-03T23:25:37.970Z,4.80
2024-01-03T23:28:04.976Z,4.95
2024-01-03T23:30:31.788Z,6.95
2024-01-03T23:32:58.686Z,2.17
2024-01-03T23:35:25.389Z,1.80
2024-01-03T23:37:51.988Z,4.00
2024-01-03T23:40:21.463Z,4.20
2024-01-03T23:42:49.314Z,4.00
2024-01-03T23:45:16.050Z,1.52
2024-01-03T23:47:43.043Z,3.53
2024-01-03T23:50:09.885Z,4.50
2024-01-03T23:52:36.530Z,2.80
2024-01-03T23:55:03.199Z,4.95
2024-01-03T23:57:29.770Z,2.67
2024-01-03T23:59:56.384Z,3.25
